Time;durP1;ratioP1;P1;durP2;ratioP2;P2;SDS_P1;SDS_P2;PMS_P1;PMS_P2;Temp;Humidity;BMP_temperature;BMP_pressure;BME280_temperature;BME280_humidity;BME280_pressure;Samples;Min_cycle;Max_cycle;Signal;HPM_P1;HPM_P2
2021/07/17 00:00:34;;;;;;;9.37;8.47;;;24.10;99.90;;;;;;3545505;40;20454;-57
2021/07/17 00:03:03;;;;;;;8.83;8.33;;;24.10;99.90;;;;;;3535170;40;20499;-56
2021/07/17 00:05:30;;;;;;;8.73;8.23;;;24.10;99.90;;;;;;3534405;40;20501;-57
2021/07/17 00:07:57;;;;;;;9.60;9.00;;;24.10;99.90;;;;;;3534868;40;20473;-56
2021/07/17 00:10:32;;;;;;;9.57;8.97;;;24.10;99.90;;;;;;3534916;40;20566;-57
2021/07/17 00:13:01;;;;;;;10.43;9.57;;;24.10;99.90;;;;;;3542584;40;20476;-55
2021/07/17 00:15:29;;;;;;;9.50;8.80;;;24.10;99.90;;;;;;3545720;40;20766;-57
2021/07/17 00:17:57;;;;;;;8.67;8.23;;;24.10;99.90;;;;;;3545700;40;20465;-57
2021/07/17 00:20:27;;;;;;;8.87;8.37;;;24.10;99.90;;;;;;3544930;40;20517;-56
2021/07/17 00:22:56;;;;;;;9.10;8.40;;;24.10;99.90;;;;;;3544813;40;20461;-57
2021/07/17 00:25:25;;;;;;;9.33;8.80;;;24.10;99.90;;;;;;3544005;40;20458;-57
2021/07/17 00:27:54;;;;;;;9.90;9.30;;;24.10;99.90;;;;;;3545222;40;20693;-59
2021/07/17 00:30:22;;;;;;;9.33;8.73;;;24.10;99.90;;;;;;3544875;40;20568;-57
2021/07/17 00:33:04;;;;;;;8.70;8.30;;;24.10;99.90;;;;;;3544549;40;20466;-57
2021/07/17 00:35:32;;;;;;;9.70;9.10;;;24.10;99.90;;;;;;3552238;40;20480;-57
2021/07/17 00:37:59;;;;;;;8.27;7.87;;;24.10;99.90;;;;;;3555049;40;20492;-54
2021/07/17 00:40:30;;;;;;;8.10;7.70;;;24.10;99.90;;;;;;3555452;40;20449;-53
2021/07/17 00:42:59;;;;;;;9.03;8.53;;;24.10;99.90;;;;;;3536117;40;20494;-57
2021/07/17 00:45:27;;;;;;;9.27;8.67;;;24.10;99.90;;;;;;3535138;40;20467;-58
2021/07/17 00:47:55;;;;;;;9.27;8.67;;;24.10;99.90;;;;;;3542957;40;20752;-56
2021/07/17 00:50:26;;;;;;;9.30;8.70;;;24.10;99.90;;;;;;3545778;40;20458;-57
2021/07/17 00:52:53;;;;;;;9.10;8.60;;;24.10;99.90;;;;;;3544308;40;20817;-56
2021/07/17 00:55:25;;;;;;;9.67;9.17;;;24.00;99.90;;;;;;3544602;40;20458;-56
2021/07/17 00:57:54;;;;;;;8.77;8.27;;;24.00;99.90;;;;;;3544982;40;20487;-57
2021/07/17 01:00:22;;;;;;;9.63;9.00;;;24.00;99.90;;;;;;3545106;40;20485;-57
2021/07/17 01:02:56;;;;;;;8.80;8.40;;;24.10;99.90;;;;;;3544251;40;20466;-57
2021/07/17 01:05:24;;;;;;;9.57;8.87;;;24.10;99.90;;;;;;3545295;40;20528;-54
2021/07/17 01:07:53;;;;;;;9.30;8.67;;;24.10;99.90;;;;;;3536249;40;20501;-54
2021/07/17 01:10:21;;;;;;;9.70;9.17;;;24.10;99.90;;;;;;3545168;40;20478;-54
2021/07/17 01:12:50;;;;;;;9.47;8.77;;;24.10;99.90;;;;;;3545192;40;20470;-56
2021/07/17 01:15:20;;;;;;;9.37;8.63;;;24.00;99.90;;;;;;3545001;40;20489;-54
2021/07/17 01:17:49;;;;;;;10.27;9.50;;;24.10;99.90;;;;;;3536649;40;20940;-56
2021/07/17 01:20:19;;;;;;;9.47;8.80;;;24.10;99.90;;;;;;3545006;40;20813;-56
2021/07/17 01:22:49;;;;;;;9.10;8.60;;;24.10;99.90;;;;;;3544857;40;21024;-57
2021/07/17 01:25:25;;;;;;;9.13;8.60;;;24.10;99.90;;;;;;3545260;40;20461;-57
2021/07/17 01:27:54;;;;;;;9.63;9.03;;;24.10;99.90;;;;;;3543123;40;20522;-56
2021/07/17 01:30:25;;;;;;;9.90;9.20;;;24.10;99.90;;;;;;3544274;40;20473;-54
2021/07/17 01:33:06;;;;;;;9.00;8.50;;;24.10;99.90;;;;;;3534999;40;20469;-56
2021/07/17 01:35:36;;;;;;;9.60;9.00;;;24.10;99.90;;;;;;3552532;40;20559;-56
2021/07/17 01:38:05;;;;;;;9.40;8.90;;;24.10;99.90;;;;;;3555161;40;20453;-57
2021/07/17 01:40:34;;;;;;;9.43;8.83;;;24.10;99.90;;;;;;3549904;40;20462;-57
2021/07/17 01:43:02;;;;;;;9.60;9.10;;;24.00;99.90;;;;;;3545913;40;20473;-58
2021/07/17 01:45:32;;;;;;;9.97;9.37;;;24.10;99.90;;;;;;3544949;40;20490;-56
2021/07/17 01:48:00;;;;;;;9.67;8.87;;;24.10;99.90;;;;;;3545603;40;20540;-57
2021/07/17 01:50:28;;;;;;;9.73;9.13;;;24.00;99.90;;;;;;3540258;40;20482;-55
2021/07/17 01:52:55;;;;;;;10.27;9.40;;;24.00;99.90;;;;;;3535373;40;20461;-54
2021/07/17 01:55:24;;;;;;;9.60;9.10;;;24.10;99.90;;;;;;3534989;40;20530;-57
2021/07/17 01:57:52;;;;;;;10.13;9.53;;;24.00;99.90;;;;;;3534863;40;20467;-56
2021/07/17 02:00:21;;;;;;;9.60;8.93;;;24.10;99.90;;;;;;3536441;40;20481;-53
2021/07/17 02:02:49;;;;;;;9.77;9.10;;;24.10;99.90;;;;;;3544121;40;20466;-56
2021/07/17 02:05:19;;;;;;;9.37;8.87;;;24.10;99.90;;;;;;3536255;40;20497;-54
2021/07/17 02:07:48;;;;;;;9.43;8.77;;;24.00;99.90;;;;;;3534111;40;20706;-56
2021/07/17 02:10:20;;;;;;;9.63;8.93;;;24.00;99.90;;;;;;3537578;40;20466;-57
2021/07/17 02:13:01;;;;;;;9.90;9.30;;;24.10;99.90;;;;;;3551987;40;20512;-54
2021/07/17 02:15:32;;;;;;;9.93;9.30;;;24.10;99.90;;;;;;3544313;40;20855;-57
2021/07/17 02:18:00;;;;;;;9.80;9.30;;;24.10;99.90;;;;;;3544463;40;20449;-55
2021/07/17 02:20:29;;;;;;;10.00;9.40;;;24.10;99.90;;;;;;3544611;40;20520;-55
2021/07/17 02:22:57;;;;;;;9.50;8.90;;;24.10;99.90;;;;;;3544242;40;20839;-56
2021/07/17 02:25:26;;;;;;;10.23;9.63;;;24.10;99.90;;;;;;3544444;40;20848;-56
2021/07/17 02:27:53;;;;;;;9.20;8.70;;;24.00;99.90;;;;;;3544313;40;20558;-56
2021/07/17 02:30:22;;;;;;;10.50;9.80;;;24.10;99.90;;;;;;3542228;40;20478;-55
2021/07/17 02:32:49;;;;;;;10.60;10.00;;;24.10;99.90;;;;;;3534793;40;20463;-56
2021/07/17 02:35:17;;;;;;;10.87;10.10;;;24.10;99.90;;;;;;3549911;40;20535;-56
2021/07/17 02:37:46;;;;;;;9.87;9.17;;;24.10;99.90;;;;;;3551750;40;20473;-57
2021/07/17 02:40:15;;;;;;;10.10;9.50;;;24.10;99.90;;;;;;3535252;40;20451;-53
2021/07/17 02:42:43;;;;;;;10.33;9.73;;;24.10;99.90;;;;;;3543097;40;20496;-56
2021/07/17 02:45:12;;;;;;;10.93;10.23;;;24.10;99.90;;;;;;3543837;40;20734;-58
2021/07/17 02:47:40;;;;;;;11.20;10.50;;;24.10;99.90;;;;;;3544404;40;20485;-56
2021/07/17 02:50:11;;;;;;;11.30;10.40;;;24.10;99.90;;;;;;3544915;40;20461;-57
2021/07/17 02:52:39;;;;;;;9.77;9.17;;;24.10;99.90;;;;;;3543548;40;20482;-57
2021/07/17 02:55:07;;;;;;;10.60;9.97;;;24.10;99.90;;;;;;3544945;40;20458;-55
2021/07/17 02:57:35;;;;;;;10.47;9.87;;;24.00;99.90;;;;;;3544655;40;20497;-56
2021/07/17 03:00:05;;;;;;;11.10;10.40;;;24.10;99.90;;;;;;3540063;40;20458;-54
2021/07/17 03:02:34;;;;;;;10.67;10.07;;;24.10;99.90;;;;;;3543545;40;20446;-55
2021/07/17 03:05:03;;;;;;;11.60;10.90;;;24.10;99.90;;;;;;3543647;40;21249;-56
2021/07/17 03:07:31;;;;;;;10.87;10.10;;;24.10;99.90;;;;;;3544159;40;20481;-54
2021/07/17 03:09:58;;;;;;;10.80;10.20;;;24.00;99.90;;;;;;3545264;40;20453;-54
2021/07/17 03:12:26;;;;;;;11.20;10.50;;;24.10;99.90;;;;;;3543344;40;20489;-56
2021/07/17 03:14:55;;;;;;;11.97;11.27;;;24.10;99.90;;;;;;3544133;40;20469;-55
2021/07/17 03:17:27;;;;;;;11.07;10.47;;;24.00;99.90;;;;;;3545043;40;20442;-54
2021/07/17 03:19:54;;;;;;;11.80;11.10;;;24.00;99.90;;;;;;3535984;40;20467;-56
2021/07/17 03:22:24;;;;;;;12.10;11.20;;;24.00;99.90;;;;;;3536141;40;20458;-53
2021/07/17 03:24:52;;;;;;;11.83;11.03;;;24.00;99.90;;;;;;3536745;40;20770;-56
2021/07/17 03:27:19;;;;;;;12.50;11.67;;;24.10;99.90;;;;;;3543286;40;20488;-57
2021/07/17 03:29:49;;;;;;;12.33;11.53;;;24.10;99.90;;;;;;3536711;40;20510;-56
2021/07/17 03:32:22;;;;;;;11.43;10.73;;;24.10;99.90;;;;;;3545482;40;20489;-56
2021/07/17 03:34:51;;;;;;;11.07;10.37;;;24.10;99.90;;;;;;3550764;40;20508;-56
2021/07/17 03:37:18;;;;;;;12.47;11.67;;;24.10;99.90;;;;;;3556090;40;20500;-57
2021/07/17 03:39:48;;;;;;;12.53;11.63;;;24.10;99.90;;;;;;3550091;40;20556;-56
2021/07/17 03:42:16;;;;;;;13.70;12.80;;;24.10;99.90;;;;;;3546311;40;20453;-56
2021/07/17 03:44:44;;;;;;;12.63;11.90;;;24.10;99.90;;;;;;3544922;40;20473;-56
2021/07/17 03:47:11;;;;;;;12.77;11.97;;;24.10;99.90;;;;;;3545390;40;20461;-53
2021/07/17 03:49:39;;;;;;;14.40;13.30;;;24.10;99.90;;;;;;3545015;40;20478;-57
2021/07/17 03:52:07;;;;;;;14.03;12.93;;;24.10;99.90;;;;;;3545452;40;20521;-54
2021/07/17 03:54:34;;;;;;;14.17;13.23;;;24.10;99.90;;;;;;3545078;40;20461;-57
2021/07/17 03:57:03;;;;;;;20.13;14.37;;;24.10;99.90;;;;;;3544615;40;20462;-56
2021/07/17 03:59:31;;;;;;;13.63;12.73;;;24.10;99.90;;;;;;3544459;40;20470;-54
2021/07/17 04:01:58;;;;;;;13.50;12.60;;;24.10;99.90;;;;;;3545053;40;20731;-57
2021/07/17 04:04:27;;;;;;;14.00;13.10;;;24.10;99.90;;;;;;3545202;40;20470;-57
2021/07/17 04:06:54;;;;;;;14.00;13.00;;;24.10;99.90;;;;;;3541801;40;20475;-55
2021/07/17 04:09:23;;;;;;;14.33;13.33;;;24.10;99.90;;;;;;3538400;40;20505;-56
2021/07/17 04:11:52;;;;;;;15.47;14.37;;;24.10;99.90;;;;;;3545775;40;21194;-56
2021/07/17 04:14:25;;;;;;;14.83;13.80;;;24.00;99.90;;;;;;3545916;40;20464;-57
2021/07/17 04:16:53;;;;;;;14.90;13.70;;;24.10;99.90;;;;;;3545586;40;20728;-56
2021/07/17 04:19:22;;;;;;;15.87;14.67;;;24.10;99.90;;;;;;3543446;40;20471;-54
2021/07/17 04:21:49;;;;;;;15.17;13.90;;;24.00;99.90;;;;;;3536555;40;20716;-56
2021/07/17 04:24:18;;;;;;;17.07;15.87;;;24.10;99.90;;;;;;3544156;40;20797;-56
2021/07/17 04:26:45;;;;;;;16.43;15.33;;;24.10;99.90;;;;;;3545275;40;20477;-57
2021/07/17 04:29:14;;;;;;;15.40;14.40;;;24.00;99.90;;;;;;3543708;40;20463;-56
2021/07/17 04:31:43;;;;;;;15.20;14.10;;;24.00;99.90;;;;;;3543808;40;20518;-57
2021/07/17 04:34:12;;;;;;;16.03;14.90;;;24.10;99.90;;;;;;3546879;40;20473;-57
2021/07/17 04:36:39;;;;;;;16.20;15.03;;;24.10;99.90;;;;;;3555126;40;20472;-56
2021/07/17 04:39:07;;;;;;;16.47;15.23;;;24.10;99.90;;;;;;3553989;40;20464;-55
2021/07/17 04:41:34;;;;;;;15.90;14.80;;;24.10;99.90;;;;;;3545374;40;20466;-55
2021/07/17 04:44:02;;;;;;;16.60;15.40;;;24.10;99.90;;;;;;3542931;40;20554;-56
2021/07/17 04:46:30;;;;;;;15.67;14.67;;;24.00;99.90;;;;;;3541430;40;20470;-57
2021/07/17 04:49:01;;;;;;;15.37;14.27;;;24.10;99.90;;;;;;3544685;40;20453;-53
2021/07/17 04:51:28;;;;;;;16.60;15.40;;;24.00;99.90;;;;;;3540599;40;20475;-55
2021/07/17 04:53:56;;;;;;;15.70;14.60;;;24.00;99.90;;;;;;3535311;40;20465;-55
2021/07/17 04:56:24;;;;;;;16.47;15.27;;;24.00;99.90;;;;;;3544562;40;20458;-57
2021/07/17 04:58:52;;;;;;;18.43;17.10;;;24.00;99.90;;;;;;3543558;40;20458;-57
2021/07/17 05:01:21;;;;;;;18.50;17.10;;;24.10;99.90;;;;;;3544816;40;20473;-56
2021/07/17 05:03:49;;;;;;;18.30;16.90;;;24.10;99.90;;;;;;3544729;40;20474;-57
2021/07/17 05:06:19;;;;;;;17.63;16.33;;;24.00;99.90;;;;;;3544800;40;20889;-56
2021/07/17 05:08:46;;;;;;;18.37;16.77;;;24.00;99.90;;;;;;3545019;40;20829;-56
2021/07/17 05:11:14;;;;;;;18.67;17.13;;;24.10;99.90;;;;;;3545129;40;20509;-55
2021/07/17 05:13:41;;;;;;;17.93;16.57;;;24.10;99.90;;;;;;3544935;40;20529;-56
2021/07/17 05:16:08;;;;;;;18.33;16.83;;;24.00;99.90;;;;;;3543713;40;20462;-57
2021/07/17 05:18:36;;;;;;;19.67;18.13;;;24.00;99.90;;;;;;3545109;40;20453;-56
2021/07/17 05:21:03;;;;;;;16.30;15.10;;;24.00;99.90;;;;;;3539803;40;20469;-53
2021/07/17 05:23:31;;;;;;;17.83;16.47;;;24.00;99.90;;;;;;3543275;40;20453;-57
2021/07/17 05:26:00;;;;;;;17.17;15.83;;;24.10;99.90;;;;;;3542837;40;20544;-56
2021/07/17 05:28:28;;;;;;;17.87;16.43;;;24.10;99.90;;;;;;3543708;40;20449;-56
2021/07/17 05:30:58;;;;;;;17.90;16.53;;;24.10;99.90;;;;;;3544022;40;20497;-57
2021/07/17 05:33:26;;;;;;;17.60;16.20;;;24.00;99.90;;;;;;3543665;40;20489;-57
2021/07/17 05:35:54;;;;;;;18.00;16.60;;;24.00;99.90;;;;;;3547691;40;20465;-53
2021/07/17 05:38:21;;;;;;;17.90;16.47;;;24.10;99.90;;;;;;3544349;40;20478;-56
2021/07/17 05:40:50;;;;;;;18.47;17.00;;;24.00;99.90;;;;;;3542812;40;20843;-55
2021/07/17 05:43:17;;;;;;;18.10;16.60;;;24.00;99.90;;;;;;3543165;40;20465;-56
2021/07/17 05:45:45;;;;;;;19.33;17.73;;;24.10;99.90;;;;;;3531617;40;20498;-57
2021/07/17 05:48:13;;;;;;;20.37;18.27;;;24.10;99.90;;;;;;3543096;40;20466;-59
2021/07/17 05:50:41;;;;;;;19.20;17.30;;;23.90;99.90;;;;;;3543748;40;20453;-57
2021/07/17 05:53:11;;;;;;;21.20;19.10;;;23.60;99.90;;;;;;3544363;40;20458;-57
2021/07/17 05:55:38;;;;;;;19.20;17.10;;;23.20;99.90;;;;;;3528206;40;20482;-58
2021/07/17 05:58:07;;;;;;;19.07;17.07;;;22.80;99.90;;;;;;3533748;40;20479;-59
2021/07/17 06:00:35;;;;;;;20.23;16.87;;;22.60;99.90;;;;;;3533034;40;20482;-57
2021/07/17 06:03:02;;;;;;;18.40;16.60;;;22.60;99.90;;;;;;3533337;40;20442;-57
2021/07/17 06:05:30;;;;;;;19.77;17.90;;;22.60;99.90;;;;;;3540379;40;20553;-56
2021/07/17 06:07:58;;;;;;;18.63;16.93;;;22.50;99.90;;;;;;3543079;40;20446;-59
2021/07/17 06:10:26;;;;;;;19.07;17.27;;;22.30;99.90;;;;;;3542944;40;20497;-58
2021/07/17 06:12:55;;;;;;;17.43;15.93;;;22.20;99.90;;;;;;3543127;40;20466;-56
2021/07/17 06:15:23;;;;;;;23.77;18.13;;;22.20;99.90;;;;;;3532365;40;20478;-59
2021/07/17 06:17:53;;;;;;;17.73;16.20;;;22.10;99.90;;;;;;3532107;40;20862;-58
2021/07/17 06:20:22;;;;;;;21.50;17.57;;;22.00;99.90;;;;;;3532142;40;20454;-57
2021/07/17 06:22:51;;;;;;;21.10;18.87;;;22.00;99.90;;;;;;3534059;40;20467;-58
2021/07/17 06:25:19;;;;;;;18.60;16.80;;;21.90;99.90;;;;;;3537700;40;20763;-58
2021/07/17 06:27:47;;;;;;;20.23;17.57;;;21.80;99.90;;;;;;3531561;40;20474;-58
2021/07/17 06:30:17;;;;;;;22.70;18.03;;;21.80;99.90;;;;;;3538530;40;20481;-57
2021/07/17 06:32:45;;;;;;;18.50;16.90;;;21.70;99.90;;;;;;3542143;40;20713;-58
2021/07/17 06:35:13;;;;;;;20.07;17.93;;;21.60;99.90;;;;;;3533606;40;20489;-58
2021/07/17 06:37:42;;;;;;;20.33;18.23;;;21.70;99.90;;;;;;3543567;40;20462;-58
2021/07/17 06:40:32;;;;;;;19.07;16.57;;;21.60;99.90;;;;;;3542627;40;20518;-58
2021/07/17 06:43:00;;;;;;;18.90;17.27;;;21.60;99.90;;;;;;3532845;40;20498;-58
2021/07/17 06:45:28;;;;;;;17.70;15.97;;;21.60;99.90;;;;;;3532871;40;20501;-58
2021/07/17 06:47:57;;;;;;;18.37;16.40;;;21.60;99.90;;;;;;3531767;40;20462;-57
2021/07/17 06:50:25;;;;;;;19.57;17.27;;;21.50;99.90;;;;;;3532493;40;20469;-58
2021/07/17 06:52:53;;;;;;;18.93;17.03;;;21.50;99.90;;;;;;3541879;40;20454;-55
2021/07/17 06:55:21;;;;;;;17.67;15.80;;;21.50;99.90;;;;;;3544150;40;20450;-58
2021/07/17 06:57:48;;;;;;;18.10;16.33;;;21.50;99.90;;;;;;3535295;40;20462;-58
2021/07/17 07:00:17;;;;;;;17.60;16.00;;;21.60;99.90;;;;;;3544411;40;20450;-58
2021/07/17 07:02:46;;;;;;;16.10;14.60;;;21.60;99.90;;;;;;3541795;40;20501;-59
2021/07/17 07:05:15;;;;;;;16.83;15.17;;;21.50;99.90;;;;;;3542726;40;21152;-57
2021/07/17 07:07:42;;;;;;;15.97;14.57;;;21.60;99.90;;;;;;3542902;40;20465;-56
2021/07/17 07:10:10;;;;;;;16.10;14.80;;;21.60;99.90;;;;;;3541995;40;20451;-57
2021/07/17 07:12:40;;;;;;;15.37;13.80;;;21.60;99.90;;;;;;3541301;40;20532;-59
2021/07/17 07:15:10;;;;;;;16.33;15.03;;;21.60;99.90;;;;;;3538944;40;20553;-56
2021/07/17 07:17:41;;;;;;;14.60;13.30;;;21.70;99.90;;;;;;3540329;40;20916;-58
2021/07/17 07:20:10;;;;;;;14.90;13.67;;;21.70;99.90;;;;;;3543805;40;20473;-58
2021/07/17 07:22:39;;;;;;;13.53;12.53;;;21.70;99.90;;;;;;3542243;40;21330;-57
2021/07/17 07:25:09;;;;;;;14.60;13.17;;;21.80;99.90;;;;;;3535345;40;20517;-58
2021/07/17 07:27:37;;;;;;;13.70;12.50;;;21.80;99.90;;;;;;3542506;40;20501;-59
2021/07/17 07:30:07;;;;;;;12.43;11.53;;;21.70;99.90;;;;;;3543853;40;20505;-58
2021/07/17 07:32:35;;;;;;;11.60;10.83;;;21.60;99.90;;;;;;3543387;40;20462;-58
2021/07/17 07:35:04;;;;;;;14.50;13.30;;;21.70;99.90;;;;;;3542475;40;20462;-59
2021/07/17 07:37:32;;;;;;;14.00;12.83;;;21.70;99.90;;;;;;3543944;40;20751;-58
2021/07/17 07:40:03;;;;;;;17.53;12.10;;;21.70;99.90;;;;;;3544166;40;20450;-57
2021/07/17 07:42:30;;;;;;;12.53;11.63;;;21.70;99.90;;;;;;3540537;40;20469;-58
2021/07/17 07:44:59;;;;;;;13.13;11.90;;;21.70;99.90;;;;;;3532905;40;20479;-57
2021/07/17 07:47:26;;;;;;;13.30;12.20;;;21.70;99.90;;;;;;3533291;40;20450;-58
2021/07/17 07:49:54;;;;;;;15.40;13.17;;;21.60;99.90;;;;;;3532487;40;20494;-57
2021/07/17 07:52:22;;;;;;;13.60;12.50;;;21.70;99.90;;;;;;3536187;40;20516;-58
2021/07/17 07:54:49;;;;;;;13.53;12.23;;;21.70;99.90;;;;;;3541999;40;20556;-58
2021/07/17 07:57:18;;;;;;;13.47;12.47;;;21.70;99.90;;;;;;3543127;40;20729;-58
2021/07/17 07:59:45;;;;;;;14.13;12.67;;;21.80;99.90;;;;;;3539760;40;20455;-58
2021/07/17 08:02:16;;;;;;;14.20;13.03;;;21.80;99.90;;;;;;3529901;40;20499;-55
2021/07/17 08:04:45;;;;;;;13.60;12.50;;;21.90;99.90;;;;;;3529642;40;20491;-56
2021/07/17 08:07:12;;;;;;;13.70;12.60;;;22.00;99.90;;;;;;3530781;40;20466;-56
2021/07/17 08:09:40;;;;;;;14.53;13.17;;;22.30;99.90;;;;;;3531483;40;20477;-56
2021/07/17 08:12:08;;;;;;;15.83;14.40;;;22.40;99.90;;;;;;3530700;40;20477;-57
2021/07/17 08:14:36;;;;;;;15.70;14.40;;;22.60;99.90;;;;;;3538093;40;20568;-56
2021/07/17 08:17:06;;;;;;;16.17;13.90;;;22.70;99.90;;;;;;3540439;40;20493;-55
2021/07/17 08:19:34;;;;;;;15.90;14.53;;;22.80;99.90;;;;;;3541111;40;20524;-57
2021/07/17 08:22:02;;;;;;;16.67;15.30;;;22.90;99.90;;;;;;3541360;40;20450;-57
2021/07/17 08:24:30;;;;;;;18.63;16.73;;;23.00;99.90;;;;;;3531290;40;20545;-56
2021/07/17 08:26:58;;;;;;;17.10;14.40;;;23.00;99.90;;;;;;3530998;40;21154;-53
2021/07/17 08:29:26;;;;;;;18.40;16.80;;;23.10;99.90;;;;;;3540661;40;20529;-56
2021/07/17 08:31:55;;;;;;;16.43;15.13;;;23.10;99.90;;;;;;3540996;40;20466;-57
2021/07/17 08:34:23;;;;;;;17.10;15.60;;;23.20;99.90;;;;;;3540854;40;20849;-56
2021/07/17 08:36:51;;;;;;;18.50;16.77;;;23.20;99.90;;;;;;3541594;40;21229;-56
2021/07/17 08:39:19;;;;;;;16.70;15.37;;;23.20;99.90;;;;;;3541570;40;21096;-57
2021/07/17 08:41:49;;;;;;;20.40;15.10;;;23.30;99.90;;;;;;3541049;40;20462;-55
2021/07/17 08:44:19;;;;;;;17.40;16.00;;;23.30;99.90;;;;;;3541373;40;20517;-55
2021/07/17 08:46:47;;;;;;;17.40;16.00;;;23.30;99.90;;;;;;3540399;40;20477;-56
2021/07/17 08:49:17;;;;;;;17.27;15.67;;;23.30;99.90;;;;;;3540600;40;20481;-57
2021/07/17 08:51:47;;;;;;;16.90;15.40;;;23.40;99.90;;;;;;3540233;40;20446;-55
2021/07/17 08:54:15;;;;;;;16.20;15.00;;;23.40;99.90;;;;;;3540513;40;20486;-57
2021/07/17 08:56:43;;;;;;;17.10;15.60;;;23.40;99.90;;;;;;3540716;40;20477;-56
2021/07/17 08:59:10;;;;;;;18.23;16.53;;;23.40;99.90;;;;;;3542268;40;20465;-56
2021/07/17 09:01:38;;;;;;;17.43;16.13;;;23.50;99.90;;;;;;3541636;40;20530;-56
2021/07/17 09:04:07;;;;;;;18.10;16.57;;;23.50;99.90;;;;;;3541853;40;20438;-57
2021/07/17 09:06:36;;;;;;;16.73;15.60;;;23.50;99.90;;;;;;3542361;40;20462;-56
2021/07/17 09:09:05;;;;;;;18.83;17.07;;;23.50;99.90;;;;;;3542557;40;20468;-55
2021/07/17 09:11:37;;;;;;;18.73;16.87;;;23.50;99.90;;;;;;3540127;40;20546;-58
2021/07/17 09:14:06;;;;;;;17.63;16.03;;;23.50;99.90;;;;;;3540467;40;21161;-57
2021/07/17 09:16:36;;;;;;;18.23;16.40;;;23.50;99.90;;;;;;3540372;40;20486;-57
2021/07/17 09:19:06;;;;;;;19.50;17.90;;;23.50;99.90;;;;;;3540754;40;20458;-57
2021/07/17 09:21:41;;;;;;;17.53;16.23;;;23.50;99.90;;;;;;3540172;40;20505;-57
2021/07/17 09:24:13;;;;;;;18.80;17.30;;;23.50;99.90;;;;;;3541056;40;20856;-57
2021/07/17 09:26:49;;;;;;;18.30;16.40;;;23.60;99.90;;;;;;3540315;40;21067;-57
2021/07/17 09:29:17;;;;;;;18.80;17.30;;;23.60;99.90;;;;;;3541842;40;20679;-57
2021/07/17 09:31:55;;;;;;;18.50;17.00;;;23.60;99.90;;;;;;3539880;40;20458;-55
2021/07/17 09:34:25;;;;;;;18.43;16.50;;;23.60;99.90;;;;;;3540350;40;20525;-56
2021/07/17 09:36:58;;;;;;;19.37;17.57;;;23.60;99.90;;;;;;3540192;40;20450;-56
2021/07/17 09:39:29;;;;;;;19.70;17.73;;;23.60;99.90;;;;;;3542481;40;20657;-56
2021/07/17 09:42:06;;;;;;;19.37;17.67;;;23.60;99.90;;;;;;3540219;40;20462;-57
2021/07/17 09:44:34;;;;;;;20.27;18.30;;;23.60;99.90;;;;;;3540900;40;20469;-58
2021/07/17 09:47:03;;;;;;;25.17;18.37;;;23.60;99.90;;;;;;3522385;40;20572;-56
2021/07/17 09:49:31;;;;;;;20.97;18.90;;;23.60;99.90;;;;;;3541612;40;20450;-57
2021/07/17 09:52:12;;;;;;;19.17;17.23;;;23.60;99.90;;;;;;3541994;40;20446;-55
2021/07/17 09:54:41;;;;;;;18.53;16.80;;;23.60;99.90;;;;;;3541472;40;20470;-56
2021/07/17 09:57:09;;;;;;;19.43;17.83;;;23.60;99.90;;;;;;3541376;40;20450;-57
2021/07/17 09:59:37;;;;;;;22.10;19.80;;;23.60;99.90;;;;;;3542085;40;20591;-56
2021/07/17 10:02:04;;;;;;;20.80;18.87;;;23.60;99.90;;;;;;3540183;40;20973;-57
2021/07/17 10:04:32;;;;;;;20.40;18.50;;;23.60;99.90;;;;;;3540818;40;20521;-55
2021/07/17 10:07:10;;;;;;;20.30;18.37;;;23.60;99.90;;;;;;3540043;40;20461;-57
2021/07/17 10:09:37;;;;;;;20.40;18.67;;;23.70;99.90;;;;;;3540247;40;20473;-57
2021/07/17 10:12:07;;;;;;;19.60;17.77;;;23.70;99.90;;;;;;3539305;40;20458;-57
2021/07/17 10:14:36;;;;;;;20.03;18.13;;;23.70;99.90;;;;;;3539592;40;20480;-57
2021/07/17 10:17:06;;;;;;;19.50;17.70;;;23.70;99.90;;;;;;3538297;40;20466;-57
2021/07/17 10:19:34;;;;;;;20.83;19.07;;;23.70;99.90;;;;;;3539921;40;20556;-57
2021/07/17 10:22:03;;;;;;;21.40;19.27;;;23.70;99.90;;;;;;3536888;40;20757;-56
2021/07/17 10:24:34;;;;;;;19.93;17.93;;;23.60;99.90;;;;;;3545592;40;20726;-56
2021/07/17 10:27:04;;;;;;;22.57;20.60;;;23.70;99.90;;;;;;3533280;40;20694;-57
2021/07/17 10:29:33;;;;;;;24.80;19.10;;;23.70;99.90;;;;;;3543395;40;20473;-57
2021/07/17 10:32:00;;;;;;;20.80;18.87;;;23.70;99.90;;;;;;3543424;40;20470;-57
2021/07/17 10:34:28;;;;;;;22.00;19.77;;;23.70;99.90;;;;;;3547263;40;20476;-57
2021/07/17 10:37:03;;;;;;;23.37;20.97;;;23.70;99.90;;;;;;3552177;40;20554;-55
2021/07/17 10:39:34;;;;;;;21.60;19.70;;;23.70;99.90;;;;;;3553513;40;20525;-57
2021/07/17 10:42:07;;;;;;;21.70;19.70;;;23.70;99.90;;;;;;3552315;40;20464;-57
2021/07/17 10:44:43;;;;;;;23.00;20.63;;;23.70;99.90;;;;;;3553229;40;20470;-56
2021/07/17 10:47:12;;;;;;;21.23;19.43;;;23.70;99.90;;;;;;3552766;40;20531;-53
2021/07/17 10:49:41;;;;;;;19.97;18.40;;;23.70;99.90;;;;;;3552518;40;20515;-56
2021/07/17 10:52:09;;;;;;;20.67;18.80;;;23.70;99.90;;;;;;3551633;40;20441;-55
2021/07/17 10:54:38;;;;;;;20.60;18.83;;;23.70;99.90;;;;;;3551458;40;20536;-57
2021/07/17 10:57:06;;;;;;;20.33;18.60;;;23.70;99.90;;;;;;3551531;40;20456;-55
2021/07/17 10:59:45;;;;;;;18.67;17.17;;;23.70;99.90;;;;;;3551109;40;20468;-55
2021/07/17 11:02:15;;;;;;;19.37;17.67;;;23.70;99.90;;;;;;3549728;40;20714;-54
2021/07/17 11:04:48;;;;;;;18.13;16.73;;;23.70;99.90;;;;;;3551611;40;20469;-56
2021/07/17 11:07:37;;;;;;;20.80;18.93;;;23.70;99.90;;;;;;3551825;40;20498;-55
2021/07/17 11:10:28;;;;;;;20.23;18.43;;;23.80;99.90;;;;;;3550690;40;20609;-56
2021/07/17 11:12:57;;;;;;;18.50;16.90;;;23.70;99.90;;;;;;3552034;40;20706;-53
2021/07/17 11:15:33;;;;;;;20.13;18.53;;;23.70;99.90;;;;;;3546499;40;21322;-55
2021/07/17 11:18:32;;;;;;;19.40;17.70;;;23.70;99.90;;;;;;3540283;40;20476;-55
2021/07/17 11:21:01;;;;;;;19.90;18.30;;;23.80;99.90;;;;;;3533898;40;20473;-56
2021/07/17 11:23:38;;;;;;;22.63;20.20;;;23.80;99.90;;;;;;3534326;40;20450;-57
2021/07/17 11:26:09;;;;;;;26.67;19.83;;;23.70;99.90;;;;;;3533347;40;21094;-57
2021/07/17 11:29:07;;;;;;;20.03;18.30;;;23.60;99.90;;;;;;3533217;40;20461;-57
2021/07/17 11:31:52;;;;;;;22.07;18.53;;;23.50;99.90;;;;;;3533690;40;20466;-58
2021/07/17 11:34:35;;;;;;;23.23;20.73;;;23.40;99.90;;;;;;3533144;40;20455;-58
2021/07/17 11:37:07;;;;;;;27.53;19.33;;;23.30;99.90;;;;;;3532946;40;20454;-57
2021/07/17 11:39:37;;;;;;;22.30;20.00;;;23.20;99.90;;;;;;3532330;40;21131;-58
2021/07/17 11:42:08;;;;;;;21.67;18.50;;;23.20;99.90;;;;;;3531884;40;20465;-59
2021/07/17 11:44:37;;;;;;;20.90;18.80;;;23.20;99.90;;;;;;3532591;40;21144;-58
2021/07/17 11:47:07;;;;;;;19.60;17.70;;;23.30;99.90;;;;;;3532830;40;20497;-57
2021/07/17 11:49:36;;;;;;;20.70;18.70;;;23.30;99.90;;;;;;3531833;40;20471;-58
2021/07/17 11:52:05;;;;;;;19.63;18.07;;;23.40;99.90;;;;;;3531249;40;20450;-57
2021/07/17 11:54:34;;;;;;;19.70;16.87;;;23.40;99.90;;;;;;3530353;40;20585;-58
2021/07/17 11:57:06;;;;;;;20.67;18.57;;;23.40;99.90;;;;;;3531560;40;20584;-57
2021/07/17 11:59:35;;;;;;;20.17;18.27;;;23.40;99.90;;;;;;3531415;40;20471;-57
2021/07/17 12:02:09;;;;;;;20.60;18.50;;;23.40;99.90;;;;;;3531634;40;20463;-56
2021/07/17 12:04:39;;;;;;;20.50;17.07;;;23.30;99.90;;;;;;3531686;40;20474;-57
2021/07/17 12:07:09;;;;;;;21.10;18.93;;;23.30;99.90;;;;;;3532460;40;20913;-55
2021/07/17 12:09:38;;;;;;;19.00;17.10;;;23.30;99.90;;;;;;3521269;40;20535;-58
2021/07/17 12:12:34;;;;;;;19.07;17.13;;;23.30;99.90;;;;;;3525755;40;20462;-56
2021/07/17 12:15:05;;;;;;;20.13;18.03;;;23.30;99.90;;;;;;3527247;40;20826;-57
2021/07/17 12:17:36;;;;;;;18.73;17.10;;;23.30;99.90;;;;;;3531851;40;20463;-57
2021/07/17 12:20:11;;;;;;;19.33;17.37;;;23.30;99.90;;;;;;3537384;40;20537;-58
2021/07/17 12:22:49;;;;;;;20.70;17.40;;;23.30;99.90;;;;;;3540403;40;20493;-57
2021/07/17 12:25:19;;;;;;;16.93;15.30;;;23.40;99.90;;;;;;3540960;40;20464;-57
2021/07/17 12:28:00;;;;;;;19.10;16.80;;;23.40;99.90;;;;;;3539552;40;20457;-58
2021/07/17 12:30:30;;;;;;;18.87;16.93;;;23.40;99.90;;;;;;3540384;40;20486;-55
2021/07/17 12:33:20;;;;;;;17.53;15.93;;;23.30;99.90;;;;;;3537675;40;20450;-58
2021/07/17 12:35:49;;;;;;;19.70;17.63;;;23.30;99.90;;;;;;3538043;40;20485;-58
2021/07/17 12:38:22;;;;;;;18.93;17.10;;;23.30;99.90;;;;;;3538657;40;20920;-56
2021/07/17 12:40:53;;;;;;;18.73;17.07;;;23.30;99.90;;;;;;3545898;40;20486;-56
2021/07/17 12:43:33;;;;;;;18.70;16.90;;;23.40;99.90;;;;;;3540088;40;20466;-56